createdAt,value
2022-12-12T00:00:15.195Z,-1.60
2022-12-12T00:02:50.269Z,-1.70
2022-12-12T00:05:18.801Z,-2.00
2022-12-12T00:07:45.930Z,-1.90
2022-12-12T00:10:13.404Z,-1.90
2022-12-12T00:12:40.743Z,-2.00
2022-12-12T00:15:08.652Z,-2.00
2022-12-12T00:17:35.575Z,-2.20
2022-12-12T00:20:02.539Z,-2.10
2022-12-12T00:22:29.382Z,-2.10
2022-12-12T00:24:56.306Z,-2.10
2022-12-12T00:27:23.293Z,-2.50
2022-12-12T00:29:54.305Z,-2.60
2022-12-12T00:32:21.544Z,-2.50
2022-12-12T00:34:48.514Z,-2.30
2022-12-12T00:37:15.953Z,-2.30
2022-12-12T00:39:42.878Z,-2.30
2022-12-12T00:42:10.067Z,-2.30
2022-12-12T00:44:37.385Z,-2.30
2022-12-12T00:47:04.498Z,-2.30
2022-12-12T00:49:31.584Z,-2.00
2022-12-12T00:51:58.602Z,-2.00
2022-12-12T00:54:25.742Z,-2.20
2022-12-12T00:56:52.983Z,-2.50
2022-12-12T00:59:19.980Z,-2.50
2022-12-12T01:01:47.638Z,-2.30
2022-12-12T01:04:14.913Z,-2.30
2022-12-12T01:06:41.952Z,-2.40
2022-12-12T01:09:09.059Z,-2.50
2022-12-12T01:11:36.214Z,-2.50
2022-12-12T01:14:03.200Z,-2.90
2022-12-12T01:16:30.799Z,-3.10
2022-12-12T01:18:58.299Z,-3.50
2022-12-12T01:21:25.477Z,-3.50
2022-12-12T01:23:52.625Z,-3.30
2022-12-12T01:26:23.577Z,-3.10
2022-12-12T01:28:51.690Z,-2.90
2022-12-12T01:31:18.878Z,-3.00
2022-12-12T01:33:46.430Z,-3.00
2022-12-12T01:36:19.774Z,-3.00
2022-12-12T01:38:48.830Z,-3.30
2022-12-12T01:41:17.217Z,-3.60
2022-12-12T01:43:45.303Z,-3.40
2022-12-12T01:46:35.345Z,-3.10
2022-12-12T01:49:13.313Z,-3.50
2022-12-12T01:51:41.789Z,-3.60
2022-12-12T01:54:13.432Z,-3.60
2022-12-12T01:56:43.029Z,-3.60
2022-12-12T01:59:14.208Z,-3.90
2022-12-12T02:01:42.287Z,-3.80
2022-12-12T02:04:10.632Z,-3.70
2022-12-12T02:06:38.391Z,-3.50
2022-12-12T02:09:10.764Z,-3.90
2022-12-12T02:11:46.718Z,-3.90
2022-12-12T02:14:17.975Z,-3.90
2022-12-12T02:17:04.882Z,-3.90
2022-12-12T02:19:49.938Z,-4.20
2022-12-12T02:22:40.007Z,-4.40
2022-12-12T02:25:09.938Z,-4.30
2022-12-12T02:27:48.886Z,-3.90
2022-12-12T02:30:36.001Z,-3.90
2022-12-12T02:33:26.794Z,-4.30
2022-12-12T02:36:23.060Z,-4.10
2022-12-12T02:39:24.059Z,-4.20
2022-12-12T02:42:28.659Z,-4.30
2022-12-12T02:45:22.763Z,-4.50
2022-12-12T02:48:03.333Z,-4.60
2022-12-12T02:50:31.709Z,-4.40
2022-12-12T02:53:00.497Z,-4.20
2022-12-12T02:55:27.742Z,-4.50
2022-12-12T02:57:55.390Z,-4.40
2022-12-12T03:00:22.432Z,-4.30
2022-12-12T03:03:23.448Z,-4.30
2022-12-12T03:06:41.216Z,-4.50
2022-12-12T03:09:30.782Z,-4.70
2022-12-12T03:12:16.991Z,-4.60
2022-12-12T03:15:06.033Z,-4.80
2022-12-12T03:17:49.631Z,-4.70
2022-12-12T03:20:47.830Z,-4.50
2022-12-12T03:23:21.234Z,-4.40
2022-12-12T03:25:56.654Z,-4.70
2022-12-12T03:28:52.986Z,-4.70
2022-12-12T03:31:25.401Z,-4.40
2022-12-12T03:34:03.388Z,-4.60
2022-12-12T03:36:42.640Z,-4.80
2022-12-12T03:39:15.914Z,-4.80
2022-12-12T03:41:52.206Z,-4.50
2022-12-12T03:44:49.350Z,-4.40
2022-12-12T03:47:21.986Z,-4.80
2022-12-12T03:50:02.184Z,-4.90
2022-12-12T03:52:45.941Z,-4.80
2022-12-12T03:55:20.505Z,-4.90
2022-12-12T03:58:02.445Z,-4.80
2022-12-12T04:00:32.226Z,-4.80
2022-12-12T04:03:03.159Z,-4.60
2022-12-12T04:05:37.561Z,-4.80
2022-12-12T04:08:18.823Z,-4.90
2022-12-12T04:11:12.220Z,-4.80
2022-12-12T04:13:53.090Z,-4.80
2022-12-12T04:16:36.699Z,-5.20
2022-12-12T04:19:37.657Z,-5.00
2022-12-12T04:22:27.503Z,-5.00
2022-12-12T04:25:09.736Z,-4.90
2022-12-12T04:27:47.263Z,-5.00
2022-12-12T04:30:19.044Z,-4.80
2022-12-12T04:32:49.673Z,-4.90
2022-12-12T04:35:18.927Z,-4.90
2022-12-12T04:37:54.063Z,-5.00
2022-12-12T04:40:29.107Z,-5.10
2022-12-12T04:43:09.869Z,-5.20
2022-12-12T04:45:41.682Z,-5.00
2022-12-12T04:48:14.417Z,-5.10
2022-12-12T04:50:44.422Z,-5.30
2022-12-12T04:53:18.627Z,-5.20
2022-12-12T04:55:55.544Z,-5.00
2022-12-12T04:58:23.298Z,-5.00
2022-12-12T05:00:53.178Z,-4.80
2022-12-12T05:03:46.473Z,-4.90
2022-12-12T05:06:21.020Z,-5.20
2022-12-12T05:08:52.024Z,-5.40
2022-12-12T05:11:21.334Z,-5.50
2022-12-12T05:13:49.912Z,-5.50
2022-12-12T05:16:32.623Z,-5.60
2022-12-12T05:19:00.127Z,-5.50
2022-12-12T05:21:27.232Z,-5.30
2022-12-12T05:23:54.385Z,-5.20
2022-12-12T05:26:28.729Z,-5.30
2022-12-12T05:28:56.384Z,-5.20
2022-12-12T05:31:23.248Z,-5.30
2022-12-12T05:33:50.704Z,-5.10
2022-12-12T05:36:17.562Z,-5.10
2022-12-12T05:38:44.774Z,-5.10
2022-12-12T05:41:11.932Z,-5.20
2022-12-12T05:43:38.761Z,-5.20
2022-12-12T05:46:06.624Z,-5.70
2022-12-12T05:48:34.351Z,-6.00
2022-12-12T05:51:02.347Z,-5.70
2022-12-12T05:53:29.401Z,-6.00
2022-12-12T05:55:56.640Z,-6.20
2022-12-12T05:58:24.889Z,-6.10
2022-12-12T06:00:52.490Z,-6.00
2022-12-12T06:03:19.716Z,-6.10
2022-12-12T06:05:47.098Z,-6.10
2022-12-12T06:08:14.271Z,-6.00
2022-12-12T06:10:41.247Z,-6.10
2022-12-12T06:13:08.052Z,-6.00
2022-12-12T06:15:38.517Z,-5.90
2022-12-12T06:18:05.345Z,-6.20
2022-12-12T06:20:32.603Z,-6.20
2022-12-12T06:22:59.425Z,-6.00
2022-12-12T06:25:26.431Z,-5.90
2022-12-12T06:27:53.811Z,-6.10
2022-12-12T06:30:21.406Z,-6.20
2022-12-12T06:32:48.340Z,-6.20
2022-12-12T06:35:16.364Z,-5.80
2022-12-12T06:37:43.423Z,-5.90
2022-12-12T06:40:14.007Z,-5.90
2022-12-12T06:42:47.725Z,-6.00
2022-12-12T06:45:17.877Z,-6.00
2022-12-12T06:47:44.879Z,-5.80
2022-12-12T06:50:12.537Z,-5.80
2022-12-12T06:52:39.594Z,-5.70
2022-12-12T06:55:06.996Z,-5.60
2022-12-12T06:57:36.829Z,-5.50
2022-12-12T07:00:09.907Z,-6.00
2022-12-12T07:02:39.750Z,-5.90
2022-12-12T07:05:08.115Z,-5.80
2022-12-12T07:07:35.157Z,-5.80
2022-12-12T07:10:02.098Z,-5.80
2022-12-12T07:12:28.976Z,-5.80
2022-12-12T07:14:55.971Z,-5.70
2022-12-12T07:17:23.450Z,-6.00
2022-12-12T07:25:19.469Z,-5.90
2022-12-12T07:30:28.041Z,-5.80
2022-12-12T07:32:54.869Z,-5.90
2022-12-12T07:35:21.714Z,-5.80
2022-12-12T07:37:48.819Z,-5.70
2022-12-12T07:40:18.390Z,-5.80
2022-12-12T07:42:45.234Z,-5.90
2022-12-12T07:45:17.857Z,-5.90
2022-12-12T07:47:53.254Z,-5.80
2022-12-12T07:50:20.423Z,-5.80
2022-12-12T07:52:49.938Z,-5.90
2022-12-12T07:55:19.489Z,-5.60
2022-12-12T08:00:40.937Z,-5.50
2022-12-12T08:08:24.755Z,-5.20
2022-12-12T08:10:51.644Z,-5.30
2022-12-12T08:13:18.415Z,-5.20
2022-12-12T08:15:45.237Z,-5.10
2022-12-12T08:18:12.059Z,-5.10
2022-12-12T08:20:41.894Z,-5.00
2022-12-12T08:23:08.659Z,-4.70
2022-12-12T08:25:35.951Z,-4.60
2022-12-12T08:28:02.920Z,-4.70
2022-12-12T08:30:29.738Z,-4.70
2022-12-12T08:33:01.353Z,-4.70
2022-12-12T08:35:32.516Z,-4.50
2022-12-12T08:38:00.023Z,-4.20
2022-12-12T08:40:26.996Z,-4.00
2022-12-12T08:42:53.971Z,-3.90
2022-12-12T08:45:20.894Z,-3.70
2022-12-12T08:47:47.712Z,-3.50
2022-12-12T08:50:14.596Z,-3.40
2022-12-12T08:52:41.378Z,-3.40
2022-12-12T08:55:08.624Z,-3.20
2022-12-12T08:57:35.396Z,-3.00
2022-12-12T09:00:03.354Z,-3.00
2022-12-12T09:02:30.209Z,-3.00
2022-12-12T09:04:57.100Z,-3.10
2022-12-12T09:07:23.864Z,-2.90
2022-12-12T09:09:50.627Z,-3.00
2022-12-12T09:12:17.522Z,-3.00
2022-12-12T09:14:44.301Z,-2.60
2022-12-12T09:17:11.092Z,-2.40
2022-12-12T09:19:37.958Z,-2.30
2022-12-12T09:22:04.738Z,-2.30
2022-12-12T09:24:31.562Z,-2.50
2022-12-12T09:26:58.417Z,-2.30
2022-12-12T09:29:25.395Z,-2.20
2022-12-12T09:31:52.222Z,-2.10
2022-12-12T09:34:19.175Z,-1.90
2022-12-12T09:36:45.982Z,-1.90
2022-12-12T09:39:12.795Z,-1.70
2022-12-12T09:41:40.144Z,-1.50
2022-12-12T09:44:10.905Z,-1.30
2022-12-12T09:46:46.080Z,-1.20
2022-12-12T09:49:14.492Z,-1.00
2022-12-12T09:51:47.423Z,-0.90
2022-12-12T09:54:20.700Z,-0.90
2022-12-12T09:57:25.631Z,-0.80
2022-12-12T10:00:13.055Z,-0.80
2022-12-12T10:02:45.970Z,-0.70
2022-12-12T10:05:15.838Z,-0.80
2022-12-12T10:08:14.571Z,-0.90
2022-12-12T10:10:48.310Z,-0.70
2022-12-12T10:13:19.212Z,-0.60
2022-12-12T10:15:56.381Z,-0.60
2022-12-12T10:18:35.409Z,-0.40
2022-12-12T10:21:07.111Z,-0.40
2022-12-12T10:23:46.286Z,-0.10
2022-12-12T10:26:23.912Z,0.00
2022-12-12T10:29:18.621Z,-0.40
2022-12-12T10:32:10.521Z,0.00
2022-12-12T10:34:52.588Z,0.20
2022-12-12T10:37:43.121Z,0.20
2022-12-12T10:40:29.000Z,0.00
2022-12-12T10:43:15.357Z,-0.10
2022-12-12T10:45:54.727Z,-0.40
2022-12-12T10:48:21.708Z,-0.10
2022-12-12T10:50:52.650Z,0.20
2022-12-12T10:53:20.846Z,0.40
2022-12-12T10:56:00.566Z,0.40
2022-12-12T10:58:36.661Z,0.50
2022-12-12T11:01:11.269Z,0.20
2022-12-12T11:03:45.561Z,0.10
2022-12-12T11:06:17.890Z,0.30
2022-12-12T11:09:00.797Z,0.30
2022-12-12T11:11:28.988Z,0.80
2022-12-12T11:14:01.594Z,0.60
2022-12-12T11:16:39.713Z,0.50
2022-12-12T11:19:20.511Z,0.60
2022-12-12T11:21:48.408Z,0.60
2022-12-12T11:24:21.474Z,0.80
2022-12-12T11:26:57.375Z,0.80
2022-12-12T11:29:27.654Z,0.80
2022-12-12T11:31:55.921Z,0.90
2022-12-12T11:34:26.319Z,0.60
2022-12-12T11:36:53.964Z,0.60
2022-12-12T11:39:33.968Z,0.90
2022-12-12T11:42:37.050Z,1.00
2022-12-12T11:45:09.923Z,1.20
2022-12-12T11:47:42.078Z,1.30
2022-12-12T11:50:25.364Z,1.40
2022-12-12T11:52:54.974Z,1.50
2022-12-12T11:55:44.667Z,1.40
2022-12-12T11:58:21.176Z,1.00
2022-12-12T12:01:01.535Z,1.30
2022-12-12T12:03:48.834Z,1.20
2022-12-12T12:06:54.806Z,1.10
2022-12-12T12:09:49.311Z,1.10
2022-12-12T12:12:22.877Z,1.40
2022-12-12T12:15:21.485Z,1.50
2022-12-12T12:18:03.127Z,1.40
2022-12-12T12:21:14.683Z,1.50
2022-12-12T12:23:58.036Z,1.30
2022-12-12T12:26:43.571Z,1.50
2022-12-12T12:29:29.119Z,1.60
2022-12-12T12:32:11.107Z,1.50
2022-12-12T12:37:53.417Z,1.80
2022-12-12T12:40:44.646Z,1.60
2022-12-12T12:43:41.947Z,1.70
2022-12-12T12:46:30.618Z,1.80
2022-12-12T12:49:10.267Z,1.50
2022-12-12T12:51:50.655Z,1.30
2022-12-12T12:54:27.575Z,1.40
2022-12-12T12:57:12.454Z,1.50
2022-12-12T12:59:43.445Z,1.80
2022-12-12T13:02:34.814Z,1.70
2022-12-12T13:05:27.177Z,1.20
2022-12-12T13:08:21.728Z,1.10
2022-12-12T13:10:55.409Z,1.00
2022-12-12T13:13:27.396Z,1.40
2022-12-12T13:16:09.575Z,1.40
2022-12-12T13:18:46.382Z,1.50
2022-12-12T13:21:41.241Z,1.50
2022-12-12T13:29:43.432Z,1.10
2022-12-12T13:32:25.601Z,1.00
2022-12-12T13:35:05.696Z,0.90
2022-12-12T13:37:57.844Z,1.00
2022-12-12T13:41:02.042Z,1.10
2022-12-12T13:43:41.621Z,0.90
2022-12-12T13:51:32.484Z,0.60
2022-12-12T13:54:14.531Z,0.50
2022-12-12T14:02:28.227Z,0.40
2022-12-12T14:05:28.909Z,0.30
2022-12-12T14:08:13.859Z,0.30
2022-12-12T14:10:52.648Z,0.30
2022-12-12T14:13:23.006Z,0.20
2022-12-12T14:18:53.947Z,0.20
2022-12-12T14:21:36.093Z,0.10
2022-12-12T14:24:35.083Z,0.20
2022-12-12T14:27:06.529Z,0.10
2022-12-12T14:29:35.228Z,0.00
2022-12-12T14:32:11.623Z,0.00
2022-12-12T14:35:03.699Z,-0.10
2022-12-12T14:37:40.260Z,-0.10
2022-12-12T14:40:11.195Z,-0.20
2022-12-12T14:43:15.562Z,-0.10
2022-12-12T14:45:38.983Z,-0.20
2022-12-12T14:48:22.293Z,-0.30
2022-12-12T14:51:09.531Z,-0.40
2022-12-12T14:53:44.148Z,-0.60
2022-12-12T14:56:17.742Z,-0.50
2022-12-12T14:58:57.213Z,-0.40
2022-12-12T15:01:52.290Z,-0.40
2022-12-12T15:04:25.666Z,-0.50
2022-12-12T15:06:54.684Z,-0.50
2022-12-12T15:09:29.580Z,-0.60
2022-12-12T15:12:13.111Z,-0.50
2022-12-12T15:14:54.607Z,-0.60
2022-12-12T15:17:32.538Z,-0.70
2022-12-12T15:20:02.987Z,-0.80
2022-12-12T15:22:39.290Z,-0.80
2022-12-12T15:25:21.365Z,-0.80
2022-12-12T15:27:55.542Z,-0.80
2022-12-12T15:30:42.025Z,-0.90
2022-12-12T15:33:18.203Z,-1.10
2022-12-12T15:36:02.883Z,-1.10
2022-12-12T15:38:31.338Z,-1.30
2022-12-12T15:41:00.052Z,-1.20
2022-12-12T15:43:29.302Z,-1.10
2022-12-12T15:46:02.646Z,-1.20
2022-12-12T15:48:29.509Z,-1.20
2022-12-12T15:51:03.351Z,-1.10
2022-12-12T15:53:36.793Z,-1.20
2022-12-12T15:56:07.974Z,-1.20
2022-12-12T15:58:46.874Z,-1.10
2022-12-12T16:01:20.390Z,-1.20
2022-12-12T16:04:00.152Z,-1.20
2022-12-12T16:06:31.481Z,-1.30
2022-12-12T16:09:01.309Z,-1.30
2022-12-12T16:11:48.151Z,-1.40
2022-12-12T16:14:40.641Z,-1.40
2022-12-12T16:17:21.414Z,-1.40
2022-12-12T16:19:58.310Z,-1.40
2022-12-12T16:22:45.890Z,-1.50
2022-12-12T16:25:28.357Z,-1.60
2022-12-12T16:28:07.170Z,-1.60
2022-12-12T16:30:35.327Z,-1.60
2022-12-12T16:33:28.619Z,-1.70
2022-12-12T16:35:56.162Z,-1.80
2022-12-12T16:38:23.430Z,-1.90
2022-12-12T16:40:53.586Z,-2.10
2022-12-12T16:43:22.271Z,-1.90
2022-12-12T16:45:53.756Z,-1.90
2022-12-12T16:48:26.517Z,-1.80
2022-12-12T16:50:58.642Z,-1.80
2022-12-12T16:53:25.598Z,-1.80
2022-12-12T16:55:52.871Z,-1.90
2022-12-12T16:58:22.568Z,-2.10
2022-12-12T17:00:52.839Z,-2.80
2022-12-12T17:03:21.271Z,-3.20
2022-12-12T17:05:48.733Z,-3.00
2022-12-12T17:08:17.199Z,-2.80
2022-12-12T17:10:46.081Z,-2.70
2022-12-12T17:13:19.467Z,-2.60
2022-12-12T17:15:46.705Z,-2.40
2022-12-12T17:18:33.861Z,-2.30
2022-12-12T17:21:00.937Z,-2.40
2022-12-12T17:23:27.969Z,-2.30
2022-12-12T17:26:00.998Z,-2.40
2022-12-12T17:28:33.095Z,-2.30
2022-12-12T17:31:00.071Z,-2.40
2022-12-12T17:33:27.117Z,-2.70
2022-12-12T17:36:03.239Z,-2.80
2022-12-12T17:38:30.709Z,-2.60
2022-12-12T17:40:58.230Z,-2.70
2022-12-12T17:43:25.701Z,-2.70
2022-12-12T17:46:00.417Z,-2.80
2022-12-12T17:48:35.309Z,-2.90
2022-12-12T17:51:04.310Z,-3.10
2022-12-12T17:53:32.957Z,-3.20
2022-12-12T17:56:01.298Z,-3.40
2022-12-12T17:58:35.787Z,-3.90
2022-12-12T18:01:13.543Z,-4.00
2022-12-12T18:03:41.923Z,-3.60
2022-12-12T18:06:09.294Z,-3.30
2022-12-12T18:08:37.174Z,-3.30
2022-12-12T18:11:09.304Z,-3.40
2022-12-12T18:13:38.788Z,-3.40
2022-12-12T18:16:07.157Z,-3.60
2022-12-12T18:18:34.818Z,-4.10
2022-12-12T18:21:23.504Z,-4.40
2022-12-12T18:24:24.053Z,-4.40
2022-12-12T18:26:55.533Z,-4.30
2022-12-12T18:29:28.433Z,-4.40
2022-12-12T18:31:55.541Z,-4.70
2022-12-12T18:34:22.845Z,-4.70
2022-12-12T18:36:50.053Z,-4.80
2022-12-12T18:39:17.745Z,-4.50
2022-12-12T18:41:44.623Z,-4.30
2022-12-12T18:44:14.176Z,-4.10
2022-12-12T18:46:43.382Z,-4.00
2022-12-12T18:49:13.921Z,-4.50
2022-12-12T18:51:41.439Z,-4.90
2022-12-12T18:54:14.180Z,-4.80
2022-12-12T18:56:42.205Z,-4.90
2022-12-12T18:59:09.166Z,-5.20
2022-12-12T19:01:37.127Z,-5.00
2022-12-12T19:04:11.667Z,-5.40
2022-12-12T19:06:40.316Z,-5.20
2022-12-12T19:09:12.605Z,-4.80
2022-12-12T19:11:39.459Z,-5.00
2022-12-12T19:14:15.860Z,-5.10
2022-12-12T19:16:44.089Z,-5.30
2022-12-12T19:19:12.504Z,-5.00
2022-12-12T19:21:40.181Z,-4.70
2022-12-12T19:24:09.437Z,-4.60
2022-12-12T19:26:37.476Z,-4.50
2022-12-12T19:29:07.117Z,-4.50
2022-12-12T19:31:36.183Z,-3.80
2022-12-12T19:34:05.070Z,-3.20
2022-12-12T19:36:32.667Z,-3.30
2022-12-12T19:39:01.029Z,-3.30
2022-12-12T19:41:28.117Z,-3.50
2022-12-12T19:43:57.453Z,-3.60
2022-12-12T19:46:27.647Z,-4.00
2022-12-12T19:48:56.426Z,-4.60
2022-12-12T19:51:24.856Z,-4.60
2022-12-12T19:53:55.465Z,-4.70
2022-12-12T19:56:31.572Z,-4.60
2022-12-12T19:58:59.847Z,-4.80
2022-12-12T20:01:30.342Z,-5.10
2022-12-12T20:04:08.922Z,-5.00
2022-12-12T20:06:42.113Z,-5.10
2022-12-12T20:09:10.273Z,-5.60
2022-12-12T20:11:38.007Z,-5.30
2022-12-12T20:14:05.194Z,-5.40
2022-12-12T20:16:32.172Z,-5.30
2022-12-12T20:19:00.581Z,-5.30
2022-12-12T20:22:00.215Z,-5.50
2022-12-12T20:24:17.510Z,-5.30
2022-12-12T20:26:45.470Z,-5.50
2022-12-12T20:29:15.869Z,-5.70
2022-12-12T20:31:45.548Z,-5.80
2022-12-12T20:34:14.093Z,-5.90
2022-12-12T20:36:41.546Z,-5.80
2022-12-12T20:39:12.691Z,-5.80
2022-12-12T20:41:40.071Z,-5.60
2022-12-12T20:44:08.645Z,-5.60
2022-12-12T20:46:38.166Z,-5.50
2022-12-12T20:49:09.403Z,-5.40
2022-12-12T20:54:24.899Z,-6.10
2022-12-12T20:56:53.424Z,-6.40
2022-12-12T20:59:20.319Z,-6.30
2022-12-12T21:01:47.926Z,-6.10
2022-12-12T21:04:15.322Z,-6.30
2022-12-12T21:06:44.705Z,-6.40
2022-12-12T21:09:16.254Z,-6.30
2022-12-12T21:11:44.690Z,-6.50
2022-12-12T21:14:12.402Z,-6.80
2022-12-12T21:16:40.008Z,-6.50
2022-12-12T21:19:13.693Z,-6.20
2022-12-12T21:21:42.591Z,-6.10
2022-12-12T21:24:14.986Z,-6.10
2022-12-12T21:26:42.270Z,-6.10
2022-12-12T21:29:09.271Z,-5.90
2022-12-12T21:31:43.427Z,-6.20
2022-12-12T21:34:13.531Z,-6.80
2022-12-12T21:36:40.303Z,-6.80
2022-12-12T21:39:07.265Z,-6.50
2022-12-12T21:41:35.169Z,-6.20
2022-12-12T21:44:02.155Z,-6.20
2022-12-12T21:46:30.164Z,-6.50
2022-12-12T21:49:16.782Z,-6.40
2022-12-12T21:51:43.954Z,-6.20
2022-12-12T21:54:12.808Z,-6.30
2022-12-12T21:56:40.836Z,-6.30
2022-12-12T21:59:08.249Z,-6.40
2022-12-12T22:01:35.167Z,-6.60
2022-12-12T22:04:02.335Z,-6.40
2022-12-12T22:06:34.804Z,-6.50
2022-12-12T22:09:04.456Z,-7.00
2022-12-12T22:11:41.377Z,-7.10
2022-12-12T22:14:14.840Z,-6.90
2022-12-12T22:16:41.682Z,-6.90
2022-12-12T22:19:13.764Z,-6.80
2022-12-12T22:21:40.955Z,-6.70
2022-12-12T22:24:08.170Z,-6.70
2022-12-12T22:26:37.529Z,-6.60
2022-12-12T22:29:07.362Z,-6.70
2022-12-12T22:31:37.492Z,-6.70
2022-12-12T22:34:11.209Z,-6.80
2022-12-12T22:36:39.773Z,-6.80
2022-12-12T22:39:08.448Z,-6.70
2022-12-12T22:41:35.269Z,-6.60
2022-12-12T22:44:04.166Z,-6.50
2022-12-12T22:46:31.880Z,-6.60
2022-12-12T22:49:01.235Z,-6.70
2022-12-12T22:51:31.247Z,-6.70
2022-12-12T22:54:00.303Z,-6.80
2022-12-12T22:56:31.143Z,-7.10
2022-12-12T22:58:57.983Z,-7.20
2022-12-12T23:01:25.163Z,-7.00
2022-12-12T23:03:52.206Z,-6.80
2022-12-12T23:06:29.382Z,-7.00
2022-12-12T23:08:59.314Z,-7.20
2022-12-12T23:11:28.070Z,-7.10
2022-12-12T23:13:58.815Z,-7.00
2022-12-12T23:16:27.533Z,-7.00
2022-12-12T23:18:55.000Z,-7.00
2022-12-12T23:21:23.867Z,-7.00
2022-12-12T23:23:51.220Z,-6.90
2022-12-12T23:26:24.227Z,-7.30
2022-12-12T23:28:51.591Z,-7.40
2022-12-12T23:31:24.725Z,-7.40
2022-12-12T23:33:56.824Z,-7.30
2022-12-12T23:36:24.617Z,-7.20
2022-12-12T23:38:58.398Z,-7.10
2022-12-12T23:41:26.154Z,-7.30
2022-12-12T23:43:53.341Z,-7.10
2022-12-12T23:46:31.463Z,-7.00
2022-12-12T23:48:59.636Z,-6.90
2022-12-12T23:51:28.325Z,-6.90
2022-12-12T23:53:56.684Z,-7.20
2022-12-12T23:56:23.903Z,-7.60
2022-12-12T23:58:52.892Z,-7.70
